Terminal Aerodrome Forecast
Issued by NWS Mt. Holly, NJ

Home | Current Version | Previous Version | Text Only | Print | Product List | Glossary On
Versions: 1 2 3 4 5 6 7 8 9 10 11 12 13 14 15 16 17 18 19 20 21 22 23 24 25 26 27
000
FTUS41 KPHI 261100
TAFILG
TAF
KILG 261120Z 2612/2712 02011G17KT 6SM RA OVC040
      TEMPO 2613/2617 5SM -RA OVC020
     FM261700 02016G25KT 2SM -RASN OVC006
     FM262200 35017G25KT 3SM -SN OVC009
     FM270100 32011KT 5SM -SN OVC015
     FM270400 31010KT P6SM BKN040=

USA.gov is the U.S. government's official web portal to all federal, state and local government web resources and services.